createdAt,value
2019-06-07T00:00:29.758Z,988.54
2019-06-07T00:01:11.446Z,988.55
2019-06-07T00:02:16.495Z,988.50
2019-06-07T00:03:23.978Z,988.47
2019-06-07T00:04:13.650Z,988.47
2019-06-07T00:05:14.947Z,988.48
2019-06-07T00:06:15.095Z,988.51
2019-06-07T00:07:14.341Z,988.55
2019-06-07T00:08:22.636Z,988.51
2019-06-07T00:09:15.317Z,988.55
2019-06-07T00:10:34.574Z,988.58
2019-06-07T00:11:18.108Z,988.52
2019-06-07T00:12:17.584Z,988.55
2019-06-07T00:13:19.850Z,988.56
2019-06-07T00:14:16.029Z,988.51
2019-06-07T00:15:18.131Z,988.53
2019-06-07T00:16:18.963Z,988.55
2019-06-07T00:17:17.555Z,988.54
2019-06-07T00:18:20.042Z,988.54
2019-06-07T00:19:16.247Z,988.50
2019-06-07T00:20:19.473Z,988.48
2019-06-07T00:21:17.852Z,988.45
2019-06-07T00:22:30.123Z,988.47
2019-06-07T00:23:20.199Z,988.41
2019-06-07T00:24:16.825Z,988.43
2019-06-07T00:25:22.863Z,988.42
2019-06-07T00:26:18.192Z,988.43
2019-06-07T00:27:18.253Z,988.50
2019-06-07T00:28:17.358Z,988.40
2019-06-07T00:29:18.863Z,988.44
2019-06-07T00:30:39.563Z,988.40
2019-06-07T00:31:22.283Z,988.45
2019-06-07T00:32:19.099Z,988.45
2019-06-07T00:33:21.723Z,988.40
2019-06-07T00:34:20.035Z,988.43
2019-06-07T00:35:22.137Z,988.36
2019-06-07T00:36:20.654Z,988.39
2019-06-07T00:37:20.638Z,988.38
2019-06-07T00:38:20.459Z,988.35
2019-06-07T00:39:22.912Z,988.30
2019-06-07T00:40:29.997Z,988.28
2019-06-07T00:41:22.269Z,988.27
2019-06-07T00:42:21.622Z,988.27
2019-06-07T00:43:25.847Z,988.27
2019-06-07T00:44:21.511Z,988.31
2019-06-07T00:45:22.431Z,988.24
2019-06-07T00:46:21.635Z,988.25
2019-06-07T00:47:24.889Z,988.25
2019-06-07T00:48:30.830Z,988.25
2019-06-07T00:49:36.058Z,988.26
2019-06-07T00:50:23.929Z,988.25
2019-06-07T00:51:21.924Z,988.28
2019-06-07T00:53:11.839Z,988.29
2019-06-07T00:53:31.064Z,988.29
2019-06-07T00:54:24.063Z,988.29
2019-06-07T00:55:27.507Z,988.31
2019-06-07T00:56:23.506Z,988.29
2019-06-07T00:57:24.459Z,988.31
2019-06-07T00:58:27.506Z,988.28
2019-06-07T00:59:28.792Z,988.33
2019-06-07T01:00:25.518Z,988.31
2019-06-07T01:01:25.595Z,988.28
2019-06-07T01:02:28.804Z,988.29
2019-06-07T01:03:25.804Z,988.35
2019-06-07T01:04:26.045Z,988.30
2019-06-07T01:05:31.153Z,988.31
2019-06-07T01:06:26.001Z,988.31
2019-06-07T01:07:25.987Z,988.29
2019-06-07T01:08:28.162Z,988.23
2019-06-07T01:09:26.078Z,988.28
2019-06-07T01:10:51.540Z,988.30
2019-06-07T01:11:26.175Z,988.31
2019-06-07T01:12:27.004Z,988.25
2019-06-07T01:13:26.979Z,988.23
2019-06-07T01:14:28.733Z,988.22
2019-06-07T01:15:29.033Z,988.20
2019-06-07T01:16:26.620Z,988.21
2019-06-07T01:17:39.191Z,988.22
2019-06-07T01:18:37.705Z,988.23
2019-06-07T01:19:28.489Z,988.25
2019-06-07T01:20:27.073Z,988.29
2019-06-07T01:21:29.953Z,988.22
2019-06-07T01:22:29.186Z,988.21
2019-06-07T01:24:05.531Z,988.25
2019-06-07T01:24:29.492Z,988.25
2019-06-07T01:25:29.044Z,988.20
2019-06-07T01:26:30.384Z,988.21
2019-06-07T01:27:28.841Z,988.23
2019-06-07T01:28:30.074Z,988.26
2019-06-07T01:29:30.841Z,988.25
2019-06-07T01:30:30.987Z,988.20
2019-06-07T01:31:31.627Z,988.22
2019-06-07T01:32:31.734Z,988.23
2019-06-07T01:33:49.883Z,988.22
2019-06-07T01:34:31.500Z,988.21
2019-06-07T01:35:30.213Z,988.21
2019-06-07T01:36:31.103Z,988.23
2019-06-07T01:37:30.532Z,988.17
2019-06-07T01:38:32.117Z,988.21
2019-06-07T01:39:31.819Z,988.14
2019-06-07T01:40:33.027Z,988.14
2019-06-07T01:41:32.495Z,988.10
2019-06-07T01:42:31.231Z,988.02
2019-06-07T01:43:31.411Z,988.07
2019-06-07T01:44:31.523Z,988.00
2019-06-07T01:45:31.703Z,988.02
2019-06-07T01:46:31.918Z,988.03
2019-06-07T01:47:32.471Z,988.04
2019-06-07T01:48:48.413Z,988.08
2019-06-07T01:49:32.536Z,988.04
2019-06-07T01:50:32.737Z,988.02
2019-06-07T01:51:32.948Z,988.03
2019-06-07T01:52:33.164Z,988.01
2019-06-07T01:53:33.370Z,988.05
2019-06-07T01:54:57.168Z,988.06
2019-06-07T01:55:33.787Z,988.07
2019-06-07T01:56:34.003Z,988.05
2019-06-07T01:57:47.409Z,988.04
2019-06-07T01:58:34.424Z,988.06
2019-06-07T01:59:34.645Z,988.06
2019-06-07T02:00:34.859Z,988.12
2019-06-07T02:01:36.990Z,988.14
2019-06-07T02:02:35.219Z,988.12
2019-06-07T02:03:35.417Z,988.11
2019-06-07T02:04:35.666Z,988.11
2019-06-07T02:05:35.885Z,988.13
2019-06-07T02:06:37.999Z,988.08
2019-06-07T02:07:36.203Z,988.12
2019-06-07T02:08:36.421Z,988.10
2019-06-07T02:09:38.535Z,988.06
2019-06-07T02:10:38.902Z,988.05
2019-06-07T02:11:36.982Z,988.03
2019-06-07T02:12:43.298Z,988.08
2019-06-07T02:13:38.997Z,988.06
2019-06-07T02:14:37.577Z,988.03
2019-06-07T02:15:37.780Z,988.01
2019-06-07T02:16:37.998Z,988.05
2019-06-07T02:17:39.991Z,988.06
2019-06-07T02:18:58.812Z,988.08
2019-06-07T02:19:40.509Z,988.09
2019-06-07T02:20:40.547Z,988.08
2019-06-07T02:21:38.893Z,988.11
2019-06-07T02:22:41.995Z,988.08
2019-06-07T02:23:39.322Z,988.09
2019-06-07T02:24:39.550Z,988.11
2019-06-07T02:25:48.685Z,988.14
2019-06-07T02:26:39.949Z,988.15
2019-06-07T02:27:40.166Z,988.14
2019-06-07T02:28:45.519Z,988.15
2019-06-07T02:29:40.580Z,988.18
2019-06-07T02:30:52.490Z,988.16
2019-06-07T02:31:40.915Z,988.20
2019-06-07T02:32:41.149Z,988.17
2019-06-07T02:33:41.360Z,988.15
2019-06-07T02:34:41.597Z,988.13
2019-06-07T02:35:41.784Z,988.11
2019-06-07T02:36:41.981Z,988.08
2019-06-07T02:37:42.168Z,988.07
2019-06-07T02:38:44.024Z,988.05
2019-06-07T02:39:42.483Z,988.11
2019-06-07T02:40:42.688Z,988.10
2019-06-07T02:41:42.905Z,988.12
2019-06-07T02:42:43.106Z,988.13
2019-06-07T02:43:43.302Z,988.10
2019-06-07T02:44:43.530Z,988.16
2019-06-07T02:45:43.994Z,988.19
2019-06-07T02:46:49.450Z,988.16
2019-06-07T02:47:44.066Z,988.14
2019-06-07T02:48:44.283Z,988.16
2019-06-07T02:49:44.773Z,988.13
2019-06-07T02:50:44.747Z,988.12
2019-06-07T02:51:44.918Z,988.12
2019-06-07T02:52:45.129Z,988.16
2019-06-07T02:53:45.328Z,988.12
2019-06-07T02:54:47.498Z,988.13
2019-06-07T02:56:34.343Z,988.11
2019-06-07T02:56:58.105Z,988.05
2019-06-07T02:57:46.088Z,988.05
2019-06-07T02:58:46.301Z,988.00
2019-06-07T03:00:06.290Z,988.03
2019-06-07T03:01:03.991Z,988.04
2019-06-07T03:01:46.852Z,988.07
2019-06-07T03:02:49.012Z,988.04
2019-06-07T03:03:47.222Z,988.03
2019-06-07T03:04:47.432Z,988.05
2019-06-07T03:05:47.669Z,988.05
2019-06-07T03:06:47.864Z,988.08
2019-06-07T03:07:49.998Z,988.05
2019-06-07T03:08:48.212Z,988.06
2019-06-07T03:09:49.421Z,988.08
2019-06-07T03:10:48.634Z,988.13
2019-06-07T03:11:48.840Z,988.10
2019-06-07T03:12:49.089Z,988.06
2019-06-07T03:13:49.269Z,988.13
2019-06-07T03:14:49.472Z,988.09
2019-06-07T03:15:51.498Z,988.07
2019-06-07T03:16:49.845Z,988.08
2019-06-07T03:17:50.062Z,988.02
2019-06-07T03:18:50.276Z,988.03
2019-06-07T03:19:50.477Z,988.04
2019-06-07T03:21:04.631Z,988.00
2019-06-07T03:21:50.889Z,988.03
2019-06-07T03:22:53.009Z,988.02
2019-06-07T03:23:51.330Z,988.01
2019-06-07T03:24:51.549Z,987.96
2019-06-07T03:25:53.522Z,987.89
2019-06-07T03:27:53.992Z,987.88
2019-06-07T03:28:53.999Z,987.86
2019-06-07T03:29:52.461Z,987.87
2019-06-07T03:31:01.964Z,987.94
2019-06-07T03:31:52.870Z,987.90
2019-06-07T03:32:53.085Z,987.95
2019-06-07T03:33:53.301Z,987.99
2019-06-07T03:34:53.504Z,988.00
2019-06-07T03:35:53.712Z,988.00
2019-06-07T03:36:53.931Z,988.01
2019-06-07T03:37:56.004Z,987.99
2019-06-07T03:38:54.338Z,988.03
2019-06-07T03:39:54.552Z,988.06
2019-06-07T03:40:56.496Z,988.03
2019-06-07T03:42:05.664Z,988.03
2019-06-07T03:42:55.082Z,988.06
2019-06-07T03:43:55.299Z,988.02
2019-06-07T03:44:55.516Z,988.05
2019-06-07T03:45:57.501Z,988.07
2019-06-07T03:46:55.998Z,988.10
2019-06-07T03:47:56.174Z,988.06
2019-06-07T03:48:58.028Z,988.11
2019-06-07T03:49:56.607Z,988.05
2019-06-07T03:51:04.586Z,988.01
2019-06-07T03:51:59.007Z,988.00
2019-06-07T03:52:57.216Z,987.95
2019-06-07T03:53:59.022Z,987.93
2019-06-07T03:54:57.602Z,987.87
2019-06-07T03:55:57.814Z,987.89
2019-06-07T03:56:58.031Z,987.86
2019-06-07T03:58:30.645Z,987.87
2019-06-07T03:58:58.465Z,987.90
2019-06-07T03:59:58.665Z,987.88
2019-06-07T04:01:02.150Z,987.92
2019-06-07T04:01:59.083Z,987.96
2019-06-07T04:02:59.319Z,987.95
2019-06-07T04:03:59.494Z,987.87
2019-06-07T04:04:59.704Z,987.88
2019-06-07T04:05:59.922Z,987.89
2019-06-07T04:07:01.217Z,987.90
2019-06-07T04:08:00.341Z,987.91
2019-06-07T04:09:01.564Z,987.95
2019-06-07T04:10:00.785Z,987.92
2019-06-07T04:11:05.546Z,987.88
2019-06-07T04:12:01.217Z,987.94
2019-06-07T04:13:01.406Z,987.90
2019-06-07T04:14:01.617Z,987.92
2019-06-07T04:15:01.869Z,987.96
2019-06-07T04:16:02.059Z,988.00
2019-06-07T04:17:03.999Z,988.00
2019-06-07T04:18:04.056Z,988.02
2019-06-07T04:19:04.521Z,988.01
2019-06-07T04:20:04.531Z,988.04
2019-06-07T04:21:02.987Z,988.04
2019-06-07T04:22:03.165Z,988.11
2019-06-07T04:23:25.092Z,988.11
2019-06-07T04:24:05.004Z,988.11
2019-06-07T04:25:03.587Z,988.08
2019-06-07T04:26:05.516Z,988.13
2019-06-07T04:27:03.985Z,988.10
2019-06-07T04:28:04.183Z,988.17
2019-06-07T04:30:07.743Z,988.13
2019-06-07T04:31:04.829Z,988.12
2019-06-07T04:32:07.006Z,988.16
2019-06-07T04:33:05.229Z,988.17
2019-06-07T04:34:05.342Z,988.17
2019-06-07T04:35:05.549Z,988.16
2019-06-07T04:36:05.755Z,988.16
2019-06-07T04:37:05.990Z,988.17
2019-06-07T04:38:06.199Z,988.17
2019-06-07T04:39:06.443Z,988.19
2019-06-07T04:40:06.537Z,988.18
2019-06-07T04:41:06.776Z,988.19
2019-06-07T04:42:08.497Z,988.13
2019-06-07T04:43:07.080Z,988.11
2019-06-07T04:44:07.277Z,988.13
2019-06-07T04:45:29.226Z,988.14
2019-06-07T04:46:11.513Z,988.08
2019-06-07T04:47:07.850Z,988.05
2019-06-07T04:48:08.053Z,988.07
2019-06-07T04:49:08.256Z,988.05
2019-06-07T04:50:08.468Z,988.02
2019-06-07T04:51:08.708Z,987.96
2019-06-07T04:52:08.911Z,987.98
2019-06-07T04:53:09.100Z,987.99
2019-06-07T04:54:09.313Z,987.93
2019-06-07T04:55:12.525Z,987.97
2019-06-07T04:56:13.503Z,988.00
2019-06-07T04:57:11.500Z,987.97
2019-06-07T04:58:10.089Z,988.01
2019-06-07T04:59:12.003Z,987.96
2019-06-07T05:00:22.670Z,988.00
2019-06-07T05:01:26.272Z,988.01
2019-06-07T05:02:10.900Z,988.02
2019-06-07T05:03:11.108Z,988.01
2019-06-07T05:04:13.001Z,988.01
2019-06-07T05:05:11.451Z,987.98
2019-06-07T05:06:13.516Z,987.93
2019-06-07T05:07:11.869Z,987.89
2019-06-07T05:08:27.399Z,987.79
2019-06-07T05:09:12.282Z,987.78
2019-06-07T05:10:12.503Z,987.74
2019-06-07T05:11:12.711Z,987.69
2019-06-07T05:12:12.923Z,987.67
2019-06-07T05:13:13.140Z,987.66
2019-06-07T05:14:13.341Z,987.73
2019-06-07T05:15:13.552Z,987.67
2019-06-07T05:16:15.501Z,987.70
2019-06-07T05:17:15.509Z,987.70
2019-06-07T05:18:14.113Z,987.70
2019-06-07T05:19:14.312Z,987.70
2019-06-07T05:20:16.094Z,987.74
2019-06-07T05:21:16.502Z,987.72
2019-06-07T05:22:14.902Z,987.74
2019-06-07T05:23:59.304Z,987.70
2019-06-07T05:24:15.076Z,987.70
2019-06-07T05:25:17.079Z,987.66
2019-06-07T05:26:15.471Z,987.69
2019-06-07T05:27:15.675Z,987.71
2019-06-07T05:28:15.893Z,987.73
2019-06-07T05:29:16.108Z,987.75
2019-06-07T05:30:57.907Z,987.78
2019-06-07T05:31:20.504Z,987.77
2019-06-07T05:32:16.716Z,987.79
2019-06-07T05:33:16.930Z,987.78
2019-06-07T05:34:17.192Z,987.82
2019-06-07T05:35:17.397Z,987.80
2019-06-07T05:36:17.559Z,987.78
2019-06-07T05:37:17.785Z,987.79
2019-06-07T05:38:21.504Z,987.79
2019-06-07T05:39:18.215Z,987.80
2019-06-07T05:40:18.429Z,987.82
2019-06-07T05:41:18.632Z,987.81
2019-06-07T05:42:18.843Z,987.77
2019-06-07T05:43:21.000Z,987.81
2019-06-07T05:44:21.020Z,987.76
2019-06-07T05:45:19.348Z,987.73
2019-06-07T05:46:19.582Z,987.74
2019-06-07T05:47:19.815Z,987.72
2019-06-07T05:48:20.004Z,987.74
2019-06-07T05:49:21.239Z,987.76
2019-06-07T05:50:39.207Z,987.81
2019-06-07T05:51:20.632Z,987.77
2019-06-07T05:52:23.516Z,987.77
2019-06-07T05:53:20.974Z,987.81
2019-06-07T05:54:21.209Z,987.79
2019-06-07T05:55:21.314Z,987.82
2019-06-07T05:56:21.578Z,987.81
2019-06-07T05:57:21.752Z,987.78
2019-06-07T05:58:21.964Z,987.81
2019-06-07T05:59:22.207Z,987.82
2019-06-07T06:00:22.288Z,987.80
2019-06-07T06:01:45.104Z,987.82
2019-06-07T06:02:24.762Z,987.81
2019-06-07T06:03:22.925Z,987.85
2019-06-07T06:04:23.147Z,987.84
2019-06-07T06:05:33.381Z,987.79
2019-06-07T06:06:23.549Z,987.82
2019-06-07T06:07:23.760Z,987.84
2019-06-07T06:08:23.973Z,987.82
2019-06-07T06:09:26.018Z,987.79
2019-06-07T06:10:24.347Z,987.76
2019-06-07T06:11:43.173Z,987.77
2019-06-07T06:12:34.722Z,987.74
2019-06-07T06:13:24.928Z,987.72
2019-06-07T06:14:25.137Z,987.68
2019-06-07T06:15:41.823Z,987.63
2019-06-07T06:16:25.551Z,987.65
2019-06-07T06:17:25.799Z,987.62
2019-06-07T06:18:27.504Z,987.59
2019-06-07T06:19:26.208Z,987.63
2019-06-07T06:20:32.892Z,987.62
2019-06-07T06:21:26.639Z,987.60
2019-06-07T06:22:26.841Z,987.64
2019-06-07T06:23:27.060Z,987.60
2019-06-07T06:24:27.267Z,987.56
2019-06-07T06:25:32.972Z,987.57
2019-06-07T06:26:27.682Z,987.56
2019-06-07T06:28:03.226Z,987.55
2019-06-07T06:28:30.779Z,987.52
2019-06-07T06:29:28.273Z,987.53
2019-06-07T06:30:28.483Z,987.52
2019-06-07T06:31:33.357Z,987.50
2019-06-07T06:32:41.947Z,987.52
2019-06-07T06:33:34.450Z,987.50
2019-06-07T06:34:31.025Z,987.46
2019-06-07T06:35:29.369Z,987.49
2019-06-07T06:36:29.573Z,987.47
2019-06-07T06:37:29.787Z,987.46
2019-06-07T06:38:30.001Z,987.47
2019-06-07T06:39:32.003Z,987.46
2019-06-07T06:40:30.343Z,987.46
2019-06-07T06:41:30.558Z,987.45
2019-06-07T06:42:30.771Z,987.48
2019-06-07T06:43:32.512Z,987.46
2019-06-07T06:44:31.094Z,987.45
2019-06-07T06:45:31.306Z,987.43
2019-06-07T06:46:38.703Z,987.43
2019-06-07T06:47:33.505Z,987.50
2019-06-07T06:48:31.836Z,987.44
2019-06-07T06:49:32.038Z,987.46
2019-06-07T06:50:32.253Z,987.43
2019-06-07T06:51:32.526Z,987.39
2019-06-07T06:52:32.609Z,987.38
2019-06-07T06:53:34.506Z,987.37
2019-06-07T06:54:40.614Z,987.43
2019-06-07T06:55:34.470Z,987.40
2019-06-07T06:56:33.302Z,987.43
2019-06-07T06:57:33.511Z,987.43
2019-06-07T06:59:18.635Z,987.39
2019-06-07T06:59:39.329Z,987.41
2019-06-07T07:00:46.394Z,987.44
2019-06-07T07:01:34.332Z,987.43
2019-06-07T07:02:34.555Z,987.44
2019-06-07T07:04:06.220Z,987.42
2019-06-07T07:04:36.504Z,987.43
2019-06-07T07:05:35.081Z,987.49
2019-06-07T07:06:37.045Z,987.50
2019-06-07T07:07:35.621Z,987.47
2019-06-07T07:08:37.510Z,987.50
2019-06-07T07:09:35.738Z,987.49
2019-06-07T07:10:35.967Z,987.48
2019-06-07T07:11:52.508Z,987.50
2019-06-07T07:12:38.017Z,987.45
2019-06-07T07:13:36.584Z,987.42
2019-06-07T07:14:36.786Z,987.44
2019-06-07T07:15:37.164Z,987.41
2019-06-07T07:16:37.217Z,987.47
2019-06-07T07:17:52.712Z,987.47
2019-06-07T07:18:39.515Z,987.38
2019-06-07T07:19:42.559Z,987.36
2019-06-07T07:20:37.973Z,987.38
2019-06-07T07:21:38.197Z,987.34
2019-06-07T07:22:42.759Z,987.35
2019-06-07T07:23:38.610Z,987.44
2019-06-07T07:24:41.817Z,987.42
2019-06-07T07:25:42.775Z,987.31
2019-06-07T07:26:39.109Z,987.34
2019-06-07T07:27:39.330Z,987.30
2019-06-07T07:28:39.541Z,987.30
2019-06-07T07:29:43.789Z,987.28
2019-06-07T07:30:39.961Z,987.34
2019-06-07T07:31:43.009Z,987.72
2019-06-07T07:32:46.478Z,987.64
2019-06-07T07:34:24.073Z,987.79
2019-06-07T07:34:46.228Z,987.46
2019-06-07T07:35:40.921Z,987.64
2019-06-07T07:36:48.302Z,987.47
2019-06-07T07:37:41.347Z,987.57
2019-06-07T07:39:06.661Z,987.54
2019-06-07T07:39:41.760Z,987.36
2019-06-07T07:42:21.638Z,987.22
2019-06-07T07:43:17.474Z,987.40
2019-06-07T07:44:22.018Z,987.40
2019-06-07T07:45:20.982Z,987.35
2019-06-07T07:46:29.019Z,987.13
2019-06-07T07:47:14.643Z,987.23
2019-06-07T07:48:18.806Z,987.19
2019-06-07T07:49:15.634Z,987.17
2019-06-07T07:50:16.448Z,987.23
2019-06-07T07:51:17.031Z,987.11
2019-06-07T07:52:17.478Z,987.13
2019-06-07T07:53:15.672Z,987.13
2019-06-07T07:54:17.478Z,987.16
2019-06-07T07:55:20.031Z,987.13
2019-06-07T07:56:17.402Z,987.21
2019-06-07T07:57:24.250Z,987.17
2019-06-07T07:58:18.486Z,987.20
2019-06-07T07:59:18.482Z,987.11
2019-06-07T08:00:49.431Z,987.08
2019-06-07T08:01:19.964Z,987.05
2019-06-07T08:02:18.981Z,987.05
2019-06-07T08:03:17.478Z,987.03
2019-06-07T08:04:17.701Z,986.99
2019-06-07T08:05:25.592Z,987.01
2019-06-07T08:06:19.981Z,986.96
2019-06-07T08:07:19.985Z,986.99
2019-06-07T08:08:19.339Z,987.02
2019-06-07T08:09:21.433Z,987.04
2019-06-07T08:10:22.567Z,987.10
2019-06-07T08:11:39.985Z,987.10
2019-06-07T08:12:19.366Z,987.25
2019-06-07T08:13:26.394Z,987.37
2019-06-07T08:14:23.856Z,987.41
2019-06-07T08:15:20.665Z,987.43
2019-06-07T08:16:21.533Z,987.24
2019-06-07T08:17:21.483Z,987.00
2019-06-07T08:18:27.934Z,987.03
2019-06-07T08:19:21.982Z,987.01
2019-06-07T08:20:21.982Z,987.06
2019-06-07T08:21:26.221Z,987.07
2019-06-07T08:22:22.524Z,987.17
2019-06-07T08:23:21.943Z,986.96
2019-06-07T08:24:21.183Z,986.91
2019-06-07T08:25:21.392Z,987.00
2019-06-07T08:26:21.608Z,986.92
2019-06-07T08:27:26.236Z,986.98
2019-06-07T08:28:24.452Z,986.86
2019-06-07T08:29:22.184Z,986.83
2019-06-07T08:31:22.618Z,986.81
2019-06-07T08:32:24.530Z,986.79
2019-06-07T08:33:27.218Z,986.78
2019-06-07T08:34:25.032Z,986.82
2019-06-07T08:36:40.675Z,986.74
2019-06-07T08:36:40.836Z,986.78
2019-06-07T08:38:13.595Z,986.72
2019-06-07T08:38:48.090Z,986.71
2019-06-07T08:39:25.083Z,986.81
2019-06-07T08:40:28.106Z,986.73
2019-06-07T08:41:24.408Z,986.59
2019-06-07T08:42:37.070Z,986.63
2019-06-07T08:43:31.842Z,986.65
2019-06-07T08:44:25.751Z,987.02
2019-06-07T08:45:25.965Z,987.00
2019-06-07T08:46:25.247Z,987.30
2019-06-07T08:47:26.395Z,987.29
2019-06-07T08:48:28.231Z,987.07
2019-06-07T08:49:26.769Z,987.24
2019-06-07T08:50:27.534Z,987.36
2019-06-07T08:51:30.007Z,987.31
2019-06-07T08:52:26.346Z,987.34
2019-06-07T08:53:28.484Z,987.17
2019-06-07T08:54:29.450Z,987.12
2019-06-07T08:55:29.937Z,987.24
2019-06-07T08:56:30.988Z,987.21
2019-06-07T08:57:27.349Z,987.24
2019-06-07T08:58:29.026Z,987.00
2019-06-07T08:59:28.367Z,987.10
2019-06-07T09:00:45.262Z,986.94
2019-06-07T09:01:29.511Z,987.14
2019-06-07T09:02:31.073Z,987.14
2019-06-07T09:03:29.989Z,987.01
2019-06-07T09:04:28.445Z,987.05
2019-06-07T09:05:31.563Z,986.60
2019-06-07T09:07:29.988Z,986.90
2019-06-07T09:08:32.988Z,987.04
2019-06-07T09:09:31.203Z,986.88
2019-06-07T09:10:29.651Z,986.93
2019-06-07T09:11:37.506Z,986.94
2019-06-07T09:12:33.990Z,986.99
2019-06-07T09:13:33.339Z,986.94
2019-06-07T09:14:30.574Z,986.99
2019-06-07T09:15:32.498Z,986.89
2019-06-07T09:16:32.516Z,986.99
2019-06-07T09:17:30.989Z,986.30
2019-06-07T09:18:42.697Z,986.32
2019-06-07T09:19:38.994Z,986.98
2019-06-07T09:20:36.970Z,986.88
2019-06-07T09:21:34.519Z,986.81
2019-06-07T09:22:33.975Z,986.48
2019-06-07T09:23:33.988Z,986.91
2019-06-07T09:24:32.950Z,986.91
2019-06-07T09:25:52.183Z,986.89
2019-06-07T09:26:32.782Z,986.89
2019-06-07T09:27:34.493Z,986.92
2019-06-07T09:28:33.205Z,986.84
2019-06-07T09:29:33.419Z,986.67
2019-06-07T09:30:33.680Z,986.24
2019-06-07T09:31:52.915Z,986.81
2019-06-07T09:32:35.151Z,986.83
2019-06-07T09:33:34.181Z,986.80
2019-06-07T09:34:34.397Z,986.81
2019-06-07T09:35:38.490Z,986.78
2019-06-07T09:36:34.830Z,986.82
2019-06-07T09:38:17.661Z,986.79
2019-06-07T09:38:35.241Z,986.78
2019-06-07T09:39:36.838Z,986.74
2019-06-07T09:40:37.493Z,986.77
2019-06-07T09:41:47.328Z,986.78
2019-06-07T09:42:36.858Z,986.81
2019-06-07T09:44:36.479Z,986.83
2019-06-07T09:45:52.503Z,986.86
2019-06-07T09:46:38.538Z,986.86
2019-06-07T09:47:39.473Z,986.87
2019-06-07T09:49:37.437Z,986.90
2019-06-07T09:50:41.044Z,986.90
2019-06-07T09:51:41.940Z,986.82
2019-06-07T09:52:58.049Z,986.75
2019-06-07T09:53:38.993Z,986.79
2019-06-07T09:55:05.892Z,986.73
2019-06-07T09:55:38.366Z,986.76
2019-06-07T09:56:42.509Z,986.75
2019-06-07T09:57:38.762Z,986.78
2019-06-07T09:58:54.600Z,986.79
2019-06-07T09:59:39.197Z,986.76
2019-06-07T10:00:42.054Z,986.72
2019-06-07T10:01:40.494Z,986.70
2019-06-07T10:02:41.531Z,986.41
2019-06-07T10:03:40.952Z,986.71
2019-06-07T10:04:41.991Z,986.64
2019-06-07T10:05:42.041Z,986.69
2019-06-07T10:06:44.003Z,986.69
2019-06-07T10:08:00.040Z,986.68
2019-06-07T10:09:56.924Z,986.71
2019-06-07T10:10:09.805Z,986.69
2019-06-07T10:10:43.386Z,986.68
2019-06-07T10:11:41.404Z,986.64
2019-06-07T10:13:04.048Z,986.64
2019-06-07T10:13:43.495Z,986.62
2019-06-07T10:14:46.460Z,986.69
2019-06-07T10:15:48.203Z,986.67
2019-06-07T10:16:47.523Z,986.65
2019-06-07T10:17:42.553Z,986.56
2019-06-07T10:18:46.509Z,986.59
2019-06-07T10:19:44.500Z,986.56
2019-06-07T10:20:44.248Z,986.47
2019-06-07T10:21:50.024Z,986.47
2019-06-07T10:22:45.061Z,986.46
2019-06-07T10:23:43.650Z,986.41
2019-06-07T10:24:44.478Z,986.29
2019-06-07T10:25:55.535Z,986.20
2019-06-07T10:26:45.002Z,986.06
2019-06-07T10:27:44.357Z,985.99
2019-06-07T10:28:44.590Z,985.86
2019-06-07T10:29:45.851Z,985.66
2019-06-07T10:30:46.521Z,985.50
2019-06-07T10:31:46.161Z,985.77
2019-06-07T10:32:47.055Z,985.75
2019-06-07T10:33:47.984Z,985.83
2019-06-07T10:34:45.587Z,985.74
2019-06-07T10:35:47.509Z,985.76
2019-06-07T10:36:46.005Z,985.73
2019-06-07T10:37:50.014Z,985.74
2019-06-07T10:38:47.001Z,985.74
2019-06-07T10:39:48.914Z,985.70
2019-06-07T10:40:46.710Z,985.71
2019-06-07T10:41:48.507Z,985.66
2019-06-07T10:42:47.092Z,985.70
2019-06-07T10:44:03.339Z,985.73
2019-06-07T10:44:48.458Z,985.76
2019-06-07T10:45:51.502Z,985.77
2019-06-07T10:46:49.456Z,985.71
2019-06-07T10:47:48.082Z,985.69
2019-06-07T10:48:48.262Z,985.67
2019-06-07T10:49:50.499Z,985.66
2019-06-07T10:51:11.422Z,985.63
2019-06-07T10:51:50.975Z,985.61
2019-06-07T10:52:50.998Z,985.57
2019-06-07T10:53:51.015Z,985.58
2019-06-07T10:54:52.955Z,985.51
2019-06-07T10:55:51.504Z,985.50
2019-06-07T10:56:50.850Z,985.52
2019-06-07T10:57:51.133Z,985.44
2019-06-07T10:58:51.454Z,985.39
2019-06-07T10:59:50.446Z,985.46
2019-06-07T11:00:52.863Z,985.43
2019-06-07T11:01:52.870Z,985.42
2019-06-07T11:02:55.304Z,985.35
2019-06-07T11:03:53.011Z,985.36
2019-06-07T11:04:52.952Z,985.32
2019-06-07T11:05:53.479Z,985.29
2019-06-07T11:06:53.497Z,985.28
2019-06-07T11:07:53.504Z,985.30
2019-06-07T11:08:54.019Z,985.21
2019-06-07T11:10:06.430Z,985.12
2019-06-07T11:10:55.020Z,985.06
2019-06-07T11:11:54.522Z,985.10
2019-06-07T11:12:52.837Z,985.08
2019-06-07T11:13:57.520Z,985.15
2019-06-07T11:14:53.961Z,985.07
2019-06-07T11:15:53.480Z,985.00
2019-06-07T11:17:07.298Z,984.98
2019-06-07T11:17:57.528Z,984.96
2019-06-07T11:18:55.542Z,984.93
2019-06-07T11:19:55.508Z,984.81
2019-06-07T11:20:58.002Z,984.76
2019-06-07T11:21:56.008Z,984.71
2019-06-07T11:22:58.514Z,984.63
2019-06-07T11:23:56.819Z,984.59
2019-06-07T11:24:57.002Z,984.59
2019-06-07T11:26:03.063Z,984.58
2019-06-07T11:26:57.017Z,984.58
2019-06-07T11:27:57.003Z,984.55
2019-06-07T11:28:56.617Z,984.53
2019-06-07T11:30:00.423Z,984.53
2019-06-07T11:30:57.516Z,984.52
2019-06-07T11:32:17.102Z,984.52
2019-06-07T11:33:00.064Z,984.51
2019-06-07T11:33:58.024Z,984.47
2019-06-07T11:34:58.548Z,984.47
2019-06-07T11:35:58.226Z,984.46
2019-06-07T11:36:59.157Z,984.54
2019-06-07T11:38:02.950Z,984.57
2019-06-07T11:39:10.932Z,984.52
2019-06-07T11:40:06.494Z,984.53
2019-06-07T11:41:00.456Z,984.57
2019-06-07T11:41:59.506Z,984.55
2019-06-07T11:43:20.069Z,984.50
2019-06-07T11:44:00.058Z,984.47
2019-06-07T11:44:59.512Z,984.45
2019-06-07T11:46:02.511Z,984.35
2019-06-07T11:47:00.544Z,984.36
2019-06-07T11:48:01.895Z,984.35
2019-06-07T11:49:20.247Z,984.38
2019-06-07T11:49:59.308Z,984.28
2019-06-07T11:50:59.793Z,984.31
2019-06-07T11:51:59.802Z,984.32
2019-06-07T11:53:08.561Z,984.30
2019-06-07T11:54:00.059Z,984.26
2019-06-07T11:55:00.311Z,984.23
2019-06-07T11:56:00.479Z,984.22
2019-06-07T11:57:08.777Z,984.20
2019-06-07T11:58:02.543Z,984.17
2019-06-07T11:59:04.550Z,984.12
2019-06-07T12:00:09.386Z,984.12
2019-06-07T12:01:03.052Z,984.04
2019-06-07T12:02:03.009Z,984.04
2019-06-07T12:03:01.630Z,984.00
2019-06-07T12:04:05.518Z,983.98
2019-06-07T12:05:01.975Z,983.96
2019-06-07T12:06:04.017Z,983.94
2019-06-07T12:07:02.373Z,983.91
2019-06-07T12:08:07.964Z,983.93
2019-06-07T12:09:04.517Z,983.93
2019-06-07T12:10:05.463Z,983.89
2019-06-07T12:11:04.716Z,983.93
2019-06-07T12:12:08.176Z,983.94
2019-06-07T12:13:12.232Z,983.90
2019-06-07T12:14:04.665Z,983.83
2019-06-07T12:15:05.523Z,983.83
2019-06-07T12:16:05.516Z,983.94
2019-06-07T12:17:09.004Z,983.84
2019-06-07T12:18:06.009Z,983.81
2019-06-07T12:19:05.471Z,983.76
2019-06-07T12:20:08.699Z,983.74
2019-06-07T12:21:09.399Z,983.71
2019-06-07T12:22:10.010Z,983.61
2019-06-07T12:23:09.962Z,983.64
2019-06-07T12:24:10.318Z,983.53
2019-06-07T12:25:08.482Z,983.63
2019-06-07T12:26:07.515Z,983.57
2019-06-07T12:27:08.018Z,983.54
2019-06-07T12:28:08.063Z,983.58
2019-06-07T12:29:07.404Z,983.53
2019-06-07T12:30:10.034Z,983.53
2019-06-07T12:31:08.511Z,983.59
2019-06-07T12:32:08.522Z,983.53
2019-06-07T12:33:09.016Z,983.53
2019-06-07T12:34:07.444Z,983.50
2019-06-07T12:35:07.632Z,983.51
2019-06-07T12:36:07.879Z,983.52
2019-06-07T12:37:11.711Z,983.53
2019-06-07T12:38:24.051Z,983.57